SPTN/TCQ METAR and TAF weather

Enter ICAO airport designator
Station Type Date Time Source
SPTN METAR 2022/11/26 03:00 UTC NOAA

SPTN 260300Z 24004KT 9999 OVC030 18/14 Q1017 RMK PP000


Station Type Date Time Source
SPTN Decoded METAR 2022/11/26 03:00 UTC NOAA

Tacna, Peru (SPTN) 18-04S 070-18W 469M
Nov 25, 2022 - 10:00 PM EST / 2022.11.26 0300 UTC
Wind: from the WSW (240 degrees) at 5 MPH (4 KT):0
Visibility: greater than 7 mile(s):0
Sky conditions: overcast
Temperature: 64 F (18 C)
Dew Point: 57 F (14 C)
Relative Humidity: 77%
Pressure (altimeter): 30.03 in. Hg (1017 hPa)
ob: SPTN 260300Z 24004KT 9999 OVC030 18/14 Q1017 RMK PP000
cycle: 3

Station Type Date Time Source
SPTN TAF 2022/11/25 18:33 UTC NOAA

TAF SPTN 251700Z 2518/2618 20010KT CAVOK TX26/2519Z TN15/2611Z
FM252200 26006KT 9999 SCT080
FM260200 VRB03KT 9999 BKN025
FM261500 20010KT 9999 FEW100

Example: see airport list